Time;durP1;ratioP1;P1;durP2;ratioP2;P2;SDS_P1;SDS_P2;PMS_P1;PMS_P2;Temp;Humidity;BMP_temperature;BMP_pressure;BME280_temperature;BME280_humidity;BME280_pressure;Samples;Min_cycle;Max_cycle;Signal;HPM_P1;HPM_P2
2022/03/19 04:55:38;;;;;;;29.42;16.25;;;;;;;4.21;42.48;100059.16;12840993;22;20039;-78
2022/03/19 05:51:08;;;;;;;27.70;16.90;;;;;;;4.82;42.16;100050.28;12901262;22;20027;-79
2022/03/19 05:56:30;;;;;;;27.75;17.58;;;;;;;4.95;41.97;100051.84;12881245;23;20016;-79
2022/03/19 06:01:52;;;;;;;30.38;17.77;;;;;;;4.92;42.48;100070.19;12880993;23;20020;-83
2022/03/19 06:07:13;;;;;;;33.30;17.75;;;;;;;5.20;42.19;100052.84;12818211;23;20048;-81
2022/03/19 06:12:34;;;;;;;26.02;18.58;;;;;;;5.65;42.25;100039.75;12859503;23;20020;-80
2022/03/19 06:17:55;;;;;;;30.70;18.63;;;;;;;7.44;42.18;100034.09;12859368;23;20020;-83
2022/03/19 06:23:16;;;;;;;26.20;18.15;;;;;;;11.15;39.79;100041.59;12817973;23;20016;-82
2022/03/19 06:28:37;;;;;;;27.40;19.50;;;;;;;13.74;34.62;100030.06;12837707;23;20001;-83
2022/03/19 06:33:58;;;;;;;24.75;17.90;;;;;;;16.34;34.41;100022.88;12830867;23;20017;-85
2022/03/19 06:39:19;;;;;;;28.02;18.67;;;;;;;18.52;32.13;100026.94;12852506;23;20051;-83
2022/03/19 06:51:00;;;;;;;20.52;16.58;;;;;;;18.78;29.72;100021.72;12859396;22;20388;-89
2022/03/19 06:56:21;;;;;;;23.88;16.42;;;;;;;18.15;29.70;100031.28;12820515;23;20101;-83
2022/03/19 07:01:47;;;;;;;19.17;15.98;;;;;;;17.78;31.04;100041.94;12822439;23;20313;-85
2022/03/19 07:07:09;;;;;;;22.00;16.97;;;;;;;18.77;32.52;100034.38;12780973;23;20035;-82
2022/03/19 07:12:31;;;;;;;20.02;14.93;;;;;;;21.67;29.12;100032.19;12795099;23;20013;-84
2022/03/19 07:17:52;;;;;;;19.23;15.73;;;;;;;25.69;22.68;100023.81;12797005;23;20016;-85
2022/03/19 07:23:13;;;;;;;22.75;15.10;;;;;;;28.09;19.81;100025.97;12775736;23;20024;-84
2022/03/19 07:28:35;;;;;;;17.08;13.85;;;;;;;28.80;12.34;100040.50;12796381;23;20314;-85
2022/03/19 07:33:56;;;;;;;18.70;15.30;;;;;;;30.06;14.51;100034.75;12775104;23;20507;-83
2022/03/19 07:39:17;;;;;;;18.75;13.93;;;;;;;28.80;14.34;100036.88;12757917;23;20075;-85
2022/03/19 07:44:38;;;;;;;20.48;14.15;;;;;;;22.86;15.68;100040.47;12778113;23;20139;-85
2022/03/19 07:49:59;;;;;;;22.75;15.25;;;;;;;22.13;17.16;100030.66;12804270;23;20326;-85
2022/03/19 07:55:21;;;;;;;18.67;15.00;;;;;;;27.08;13.98;100035.97;12799262;23;20327;-85
2022/03/19 08:00:41;;;;;;;19.33;14.88;;;;;;;30.36;12.79;100023.28;12799454;23;20024;-85
2022/03/19 08:06:03;;;;;;;18.30;13.88;;;;;;;30.64;10.82;100023.25;12768115;23;20017;-85
2022/03/19 08:11:24;;;;;;;;;;;;;;;25.93;11.65;100034.84;12799060;23;20019;-86
2022/03/19 08:16:48;;;;;;;19.57;13.20;;;;;;;21.76;14.25;100022.78;12777852;23;19916;-85
2022/03/19 08:22:09;;;;;;;18.42;13.15;;;;;;;20.98;14.53;100027.94;12778397;23;20025;-84
2022/03/19 08:27:30;;;;;;;18.23;13.15;;;;;;;17.81;15.71;100035.84;12777247;23;20068;-86
2022/03/19 08:32:52;;;;;;;16.60;12.57;;;;;;;15.02;17.37;100027.41;12798895;23;20356;-87
2022/03/19 08:43:53;;;;;;;18.17;15.15;;;;;;;11.95;19.55;100018.72;12804221;23;20432;-81
2022/03/19 08:49:35;;;;;;;23.75;15.68;;;;;;;11.10;22.52;100013.78;12749049;22;20012;31
2022/03/19 09:01:12;;;;;;;23.25;15.98;;;;;;;15.85;20.17;100010.44;12859268;22;20031;-88
2022/03/19 09:06:34;;;;;;;18.85;13.13;;;;;;;16.34;18.92;100001.09;12827197;23;20190;-87
2022/03/19 09:11:55;;;;;;;17.27;13.25;;;;;;;16.14;18.98;100008.63;12838980;23;20067;-87
2022/03/19 09:17:16;;;;;;;16.65;12.48;;;;;;;15.70;18.58;100003.63;12842221;23;20016;-87
2022/03/19 09:22:42;;;;;;;17.88;11.90;;;;;;;15.61;18.42;99998.66;12844593;23;20013;-87
2022/03/19 09:28:02;;;;;;;15.80;11.60;;;;;;;18.50;16.87;99992.84;12822561;23;20453;-86
2022/03/19 09:33:24;;;;;;;14.20;10.15;;;;;;;18.03;16.49;99974.59;12822347;23;20066;-85
2022/03/19 09:38:45;;;;;;;15.82;10.52;;;;;;;16.70;16.98;99966.63;12822316;23;20013;-84
2022/03/19 09:44:11;;;;;;;15.25;9.95;;;;;;;18.24;16.97;99959.88;12822932;23;20016;-86
2022/03/19 09:49:32;;;;;;;16.88;10.52;;;;;;;21.99;14.99;99959.44;12844264;23;20327;-84
2022/03/19 09:54:53;;;;;;;13.20;9.45;;;;;;;24.64;12.83;99959.03;12822376;23;20013;-85
2022/03/19 10:00:14;;;;;;;15.15;10.07;;;;;;;23.40;13.05;99956.47;12805684;23;20036;-85
2022/03/19 10:11:17;;;;;;;14.83;9.30;;;;;;;26.06;11.71;99956.00;12809077;23;20024;-86
2022/03/19 10:16:38;;;;;;;9.95;8.60;;;;;;;28.14;9.95;99947.91;12821648;23;20012;-87
2022/03/19 10:22:08;;;;;;;13.32;8.77;;;;;;;29.01;8.37;99949.88;12820745;23;20068;-87
2022/03/19 10:27:36;;;;;;;14.73;9.07;;;;;;;29.46;7.57;99931.00;12801067;23;20047;-87
2022/03/19 10:32:57;;;;;;;12.20;8.15;;;;;;;27.20;8.39;99938.22;12800870;23;20348;-88
2022/03/19 10:38:19;;;;;;;11.90;8.25;;;;;;;26.65;9.19;99910.41;12795369;23;20454;-88
2022/03/19 10:43:44;;;;;;;9.60;7.60;;;;;;;29.37;8.23;99917.81;12820877;23;20489;-87
2022/03/19 10:49:11;;;;;;;11.10;8.30;;;;;;;30.24;7.68;99916.41;12795020;23;20451;-87
2022/03/19 10:54:32;;;;;;;8.85;7.82;;;;;;;31.72;7.31;99903.53;12800621;23;20371;-84
2022/03/19 10:59:53;;;;;;;9.77;8.77;;;;;;;32.65;6.44;99899.22;12826493;23;20084;-85
2022/03/19 11:05:18;;;;;;;11.70;7.40;;;;;;;26.49;7.51;99896.19;12813308;23;20020;-85
2022/03/19 11:10:39;;;;;;;9.93;6.63;;;;;;;20.39;10.03;99890.88;12821066;23;20040;-86
2022/03/19 11:16:01;;;;;;;8.02;6.07;;;;;;;17.91;11.67;99878.38;12819357;23;20047;-86
2022/03/19 11:21:22;;;;;;;10.40;6.70;;;;;;;16.78;12.43;99865.72;12862018;23;20012;-86
2022/03/19 11:26:43;;;;;;;12.20;6.90;;;;;;;16.27;12.76;99867.41;12839946;23;20625;-87
2022/03/19 11:32:06;;;;;;;10.98;7.10;;;;;;;15.94;12.57;99857.72;12840033;23;20024;-88
2022/03/19 11:37:56;;;;;;;10.30;7.20;;;;;;;16.14;12.82;99859.31;12799722;23;20088;-88
2022/03/19 11:43:35;;;;;;;9.68;7.55;;;;;;;15.83;12.92;99846.97;12819996;23;20013;-87
2022/03/19 11:48:56;;;;;;;11.90;7.75;;;;;;;15.78;13.73;99850.75;12882908;23;20016;-87
2022/03/19 11:54:19;;;;;;;13.02;8.48;;;;;;;15.35;14.54;99855.72;12819757;23;20012;-85
2022/03/19 11:59:58;;;;;;;10.73;8.65;;;;;;;15.25;14.50;99849.25;12842497;23;20448;-83
2022/03/19 12:05:30;;;;;;;13.93;8.73;;;;;;;15.55;15.18;99822.88;12761291;23;20024;-82
2022/03/19 12:11:03;;;;;;;13.30;9.15;;;;;;;15.53;14.73;99825.50;12857447;23;20008;-80
2022/03/19 12:39:26;;;;;;;15.15;8.18;;;;;;;13.70;15.27;99805.16;12871177;22;20356;-84
2022/03/19 13:06:16;;;;;;;13.30;9.00;;;;;;;13.74;15.92;99777.47;12754430;22;1304655;-81
2022/03/19 13:11:42;;;;;;;13.68;9.50;;;;;;;13.86;15.52;99764.50;12751900;23;20065;-82
2022/03/19 13:17:04;;;;;;;13.48;9.40;;;;;;;13.68;16.01;99774.88;12691689;23;20028;-84
2022/03/19 13:22:25;;;;;;;16.92;10.05;;;;;;;12.81;16.49;99784.63;12717096;23;20029;-84
2022/03/19 13:27:50;;;;;;;13.73;10.18;;;;;;;11.95;17.67;99783.63;12717279;23;20045;-83
2022/03/19 13:33:15;;;;;;;13.07;9.43;;;;;;;12.11;17.27;99771.19;12717274;23;20042;-84
2022/03/19 13:38:36;;;;;;;16.52;10.52;;;;;;;11.81;17.40;99759.94;12650264;23;20022;-83
2022/03/19 13:44:02;;;;;;;15.35;10.88;;;;;;;11.74;17.89;99764.91;12638383;23;20022;-83
2022/03/19 13:49:23;;;;;;;17.08;10.32;;;;;;;11.98;17.77;99744.13;12681246;23;20042;-82
2022/03/19 13:54:45;;;;;;;14.50;10.25;;;;;;;11.85;17.63;99746.31;12679483;23;20021;-83
2022/03/19 14:00:23;;;;;;;16.27;10.27;;;;;;;11.81;17.92;99743.88;12681438;23;20018;-80
2022/03/19 14:05:48;;;;;;;15.23;10.18;;;;;;;11.37;17.81;99743.16;12685879;23;20030;-83
2022/03/19 14:11:12;;;;;;;;;;;;;;;11.33;17.65;99737.19;12671637;23;20041;-81
2022/03/19 14:16:33;;;;;;;;;;;;;;;11.35;17.81;99740.16;12651484;23;19908;-82
2022/03/19 14:21:56;;;;;;;16.67;10.73;;;;;;;11.65;17.84;99722.72;12651368;23;19928;-82
2022/03/19 14:27:17;;;;;;;18.65;10.80;;;;;;;11.56;17.86;99743.59;12690418;23;20062;-80
2022/03/19 14:32:39;;;;;;;16.13;10.05;;;;;;;10.95;18.52;99729.34;12652624;23;20010;-82
2022/03/19 14:38:00;;;;;;;16.35;10.45;;;;;;;10.86;18.62;99729.84;12646007;23;20017;-82
2022/03/19 14:43:22;;;;;;;21.52;11.35;;;;;;;10.84;18.73;99724.81;12734270;23;20013;-78
2022/03/19 14:48:43;;;;;;;14.95;10.38;;;;;;;10.81;19.18;99727.97;12673952;23;20017;-82
2022/03/19 14:54:04;;;;;;;18.65;11.52;;;;;;;10.55;19.48;99731.72;12695182;23;20057;-82
2022/03/19 14:59:27;;;;;;;15.95;11.85;;;;;;;10.37;19.94;99725.06;12715774;23;20006;-81
2022/03/19 15:04:54;;;;;;;17.05;11.90;;;;;;;10.33;20.25;99724.66;12557662;23;20042;-82
2022/03/19 15:10:16;;;;;;;17.00;11.18;;;;;;;10.32;19.95;99720.34;12595685;23;20025;-80
2022/03/19 15:15:37;;;;;;;15.00;10.70;;;;;;;10.31;20.06;99721.66;12615336;23;20033;-81
2022/03/19 15:20:58;;;;;;;16.40;10.73;;;;;;;10.40;20.19;99718.38;12635411;23;20038;-82
2022/03/19 15:26:19;;;;;;;16.05;11.05;;;;;;;10.14;19.71;99702.53;12595722;23;20042;-82
2022/03/19 15:31:40;;;;;;;17.35;10.45;;;;;;;10.10;19.83;99706.94;12634920;23;20015;-83
2022/03/19 15:43:34;;;;;;;18.33;10.27;;;;;;;9.86;20.13;99703.19;12594992;23;20010;-79
2022/03/19 15:48:56;;;;;;;13.80;10.45;;;;;;;9.87;20.22;99701.91;12635557;23;20008;-82
2022/03/19 15:54:17;;;;;;;21.58;11.63;;;;;;;9.68;20.61;99690.19;12634932;23;20018;-80
2022/03/19 15:59:38;;;;;;;16.35;10.98;;;;;;;9.67;20.62;99702.63;12634496;23;20249;-80
2022/03/19 16:04:59;;;;;;;19.27;11.88;;;;;;;9.50;20.87;99702.25;12634083;23;20069;-83
2022/03/19 16:10:19;;;;;;;19.67;11.50;;;;;;;9.31;20.86;99699.63;12634486;23;20018;-79
2022/03/19 16:28:17;;;;;;;16.77;10.85;;;;;;;8.88;21.71;99721.03;12689363;23;20066;-78
2022/03/19 16:33:38;;;;;;;22.63;12.00;;;;;;;8.76;21.91;99716.94;12694607;23;20006;-81
2022/03/19 16:38:59;;;;;;;16.70;11.10;;;;;;;8.70;22.16;99713.53;12714866;23;20006;-82
2022/03/19 16:44:20;;;;;;;20.33;12.38;;;;;;;8.53;22.47;99724.22;12674361;23;20045;-79
2022/03/19 16:49:41;;;;;;;20.40;11.88;;;;;;;8.40;22.69;99724.97;12714491;23;20010;-79
2022/03/19 16:55:02;;;;;;;19.25;11.38;;;;;;;8.30;22.98;99727.38;12693611;23;20006;-81
2022/03/19 17:00:23;;;;;;;16.75;12.20;;;;;;;8.16;23.06;99725.06;12714413;23;20012;-82
2022/03/19 17:05:44;;;;;;;21.55;11.93;;;;;;;8.03;23.51;99736.94;12713997;23;20030;-81
2022/03/19 17:11:06;;;;;;;17.33;10.65;;;;;;;7.91;23.69;99735.56;12694377;23;20006;-81
2022/03/19 17:16:27;;;;;;;16.45;10.75;;;;;;;7.80;24.33;99730.94;12734283;23;20006;-82
2022/03/19 17:21:48;;;;;;;16.88;10.23;;;;;;;7.66;24.32;99738.47;12637898;23;20008;-79
2022/03/19 17:27:09;;;;;;;16.65;10.45;;;;;;;7.58;24.25;99747.94;12775302;23;20013;-78
2022/03/19 17:32:31;;;;;;;19.88;10.63;;;;;;;7.47;24.87;99748.84;12571540;23;20019;-80
2022/03/19 17:37:53;;;;;;;16.85;9.82;;;;;;;7.37;25.00;99759.59;12515440;23;20043;-81
2022/03/19 17:43:16;;;;;;;13.98;9.00;;;;;;;7.24;24.99;99764.28;12544456;23;20031;-80
2022/03/19 17:48:38;;;;;;;13.55;9.55;;;;;;;7.17;25.28;99777.50;12597359;23;20007;-81
2022/03/19 17:53:59;;;;;;;13.85;9.40;;;;;;;7.14;25.33;99788.91;12616965;23;20003;-78
2022/03/19 17:59:19;;;;;;;13.88;9.27;;;;;;;7.06;25.42;99788.75;12577195;23;20010;-78
2022/03/19 18:04:59;;;;;;;14.70;8.93;;;;;;;7.02;25.68;99790.31;12579869;23;20011;-78
2022/03/19 18:10:20;;;;;;;12.75;8.85;;;;;;;6.96;25.54;99790.38;12625507;23;20022;-82
2022/03/19 18:15:41;;;;;;;14.52;8.05;;;;;;;6.93;25.96;99785.84;12716746;23;20021;-83
2022/03/19 18:21:02;;;;;;;14.15;8.65;;;;;;;6.96;25.91;99789.63;12716821;23;20029;-81
2022/03/19 18:26:23;;;;;;;15.02;8.05;;;;;;;7.02;25.76;99791.06;12607408;23;20022;-82
2022/03/19 18:31:44;;;;;;;14.10;7.95;;;;;;;7.00;25.61;99785.28;12656750;23;20050;-81
2022/03/19 18:37:05;;;;;;;13.25;7.93;;;;;;;7.00;25.63;99796.38;12716082;23;20005;-81
2022/03/19 18:42:26;;;;;;;10.52;6.72;;;;;;;6.94;25.66;99795.69;12675523;23;20017;-81
2022/03/19 18:47:48;;;;;;;12.43;7.28;;;;;;;6.85;25.59;99796.03;12716413;23;20002;-81
2022/03/19 18:53:09;;;;;;;11.93;6.85;;;;;;;6.81;25.44;99799.09;12676598;23;20036;-80
2022/03/19 18:58:34;;;;;;;17.17;7.43;;;;;;;6.67;25.75;99796.72;12696979;23;20010;-81
2022/03/19 19:03:55;;;;;;;11.55;7.20;;;;;;;6.57;25.48;99805.38;12644220;23;20096;-78
2022/03/19 19:09:17;;;;;;;11.63;6.90;;;;;;;6.54;25.71;99811.97;12683828;23;20049;-80
2022/03/19 19:14:38;;;;;;;11.45;7.22;;;;;;;6.44;25.77;99810.03;12660489;23;20089;-79
2022/03/19 19:19:59;;;;;;;12.07;7.57;;;;;;;6.35;25.82;99802.78;12646654;23;20006;-82
2022/03/19 19:25:20;;;;;;;13.27;7.18;;;;;;;6.26;25.83;99798.31;12663891;23;20437;-80
2022/03/19 19:30:41;;;;;;;13.30;7.95;;;;;;;6.22;26.05;99824.84;12638440;23;20034;-80
2022/03/19 19:36:08;;;;;;;13.73;7.90;;;;;;;6.20;25.98;99817.03;12634289;23;20048;-80
2022/03/19 19:41:29;;;;;;;12.85;7.30;;;;;;;6.13;26.17;99805.75;12679488;23;20021;-81
2022/03/19 19:46:51;;;;;;;13.10;7.68;;;;;;;5.99;26.19;99813.91;12681973;23;20021;-79
2022/03/19 19:52:11;;;;;;;13.30;6.85;;;;;;;5.90;26.20;99805.91;12676894;23;20063;-80
2022/03/19 20:03:17;;;;;;;14.35;8.10;;;;;;;5.66;26.81;99816.81;12689463;23;20025;-80
2022/03/19 20:08:38;;;;;;;15.23;7.43;;;;;;;5.66;26.78;99814.06;12694079;23;20006;-79
2022/03/19 20:13:58;;;;;;;14.50;8.02;;;;;;;5.51;27.19;99819.19;12674623;23;20054;-82
2022/03/19 20:19:20;;;;;;;14.25;7.70;;;;;;;5.39;26.72;99812.91;12670351;23;20018;-77
2022/03/19 20:24:41;;;;;;;12.02;7.95;;;;;;;5.28;26.94;99801.88;12673991;23;20038;-80
2022/03/19 20:30:02;;;;;;;13.52;7.82;;;;;;;5.18;27.38;99801.41;12663126;23;20005;-80
2022/03/19 20:35:25;;;;;;;13.98;7.63;;;;;;;5.09;28.15;99827.34;12675462;23;20044;-80
2022/03/19 20:40:46;;;;;;;15.68;8.02;;;;;;;5.06;27.31;99802.72;12707322;23;20017;-77
2022/03/19 20:46:06;;;;;;;13.77;8.10;;;;;;;5.03;27.98;99807.25;12697249;23;20088;-80
2022/03/19 20:51:27;;;;;;;13.60;7.95;;;;;;;5.05;27.85;99798.44;12660720;23;20014;-79
2022/03/19 20:56:48;;;;;;;14.65;8.82;;;;;;;4.98;28.15;99798.97;12688830;23;20033;-78
2022/03/19 21:02:09;;;;;;;16.70;8.43;;;;;;;4.95;28.02;99805.50;12613150;23;20451;-77
2022/03/19 21:07:30;;;;;;;12.65;8.13;;;;;;;4.85;28.07;99810.56;12641156;23;20020;-79
2022/03/19 21:12:53;;;;;;;16.92;9.20;;;;;;;4.80;28.17;99803.03;12664411;23;20014;-81
2022/03/19 21:18:14;;;;;;;17.70;8.85;;;;;;;4.73;28.27;99803.53;12657977;23;20018;-78
2022/03/19 21:23:36;;;;;;;14.75;8.57;;;;;;;4.62;28.50;99818.13;12697918;23;20002;-78
2022/03/19 21:28:57;;;;;;;14.15;8.35;;;;;;;4.49;28.13;99806.84;12706408;23;20079;-82
2022/03/19 21:40:49;;;;;;;16.30;9.02;;;;;;;4.40;29.05;99802.31;12633591;23;20026;-81
2022/03/19 21:46:12;;;;;;;16.27;9.00;;;;;;;4.34;29.27;99807.06;12601811;23;20022;-81
2022/03/19 21:51:33;;;;;;;16.25;8.63;;;;;;;4.28;29.71;99798.78;12615962;23;20021;-80
2022/03/19 21:56:55;;;;;;;15.93;8.52;;;;;;;4.22;29.51;99805.56;12619197;23;20023;-81
2022/03/19 22:02:16;;;;;;;16.27;8.10;;;;;;;4.19;30.09;99799.03;12659206;23;20066;-79
2022/03/19 22:07:37;;;;;;;13.82;8.98;;;;;;;4.18;29.98;99794.03;12619945;23;20031;-82
2022/03/19 22:13:15;;;;;;;18.30;9.38;;;;;;;4.15;30.40;99798.53;12612905;23;20062;-81
2022/03/19 22:18:37;;;;;;;15.02;8.52;;;;;;;4.16;30.11;99797.28;12620663;23;20022;-81
2022/03/19 22:23:59;;;;;;;19.33;9.90;;;;;;;4.07;30.06;99789.25;12637626;23;20062;-81
2022/03/19 22:29:23;;;;;;;16.38;8.93;;;;;;;3.97;30.75;99793.50;12615635;23;20058;-81
2022/03/19 22:34:44;;;;;;;17.20;9.55;;;;;;;3.90;31.07;99789.22;12616673;23;20015;-82
2022/03/19 22:40:06;;;;;;;16.05;9.05;;;;;;;3.83;31.65;99784.16;12621389;23;20025;-81
2022/03/19 22:45:27;;;;;;;18.73;9.15;;;;;;;3.82;31.50;99787.44;12634603;23;20049;-81
2022/03/19 22:50:49;;;;;;;19.10;10.65;;;;;;;3.71;31.10;99785.41;12615816;23;20134;-81
2022/03/19 22:56:10;;;;;;;20.13;11.38;;;;;;;3.70;31.51;99784.66;12570181;23;20015;-81
2022/03/19 23:01:31;;;;;;;17.17;9.93;;;;;;;3.66;31.41;99775.84;12631294;23;20046;-81
2022/03/19 23:06:53;;;;;;;17.55;10.20;;;;;;;3.64;31.58;99770.06;12626059;23;20093;-81
2022/03/19 23:12:14;;;;;;;20.35;10.40;;;;;;;3.59;31.77;99773.59;12604044;23;20026;-80
2022/03/19 23:17:35;;;;;;;17.17;9.75;;;;;;;3.56;31.82;99768.28;12604684;23;20022;-80
2022/03/19 23:22:56;;;;;;;17.45;10.32;;;;;;;3.51;32.23;99775.31;12608307;23;20062;-81
2022/03/19 23:28:17;;;;;;;19.20;10.40;;;;;;;3.47;31.77;99769.25;12629241;23;20020;-81
2022/03/19 23:33:38;;;;;;;18.25;10.45;;;;;;;3.47;31.93;99772.03;12630563;23;20020;-81
2022/03/19 23:38:59;;;;;;;19.23;9.88;;;;;;;3.42;31.95;99756.97;12629465;23;20062;-81
2022/03/19 23:44:21;;;;;;;17.95;10.18;;;;;;;3.40;32.07;99758.72;12650449;23;20019;-81
2022/03/19 23:49:44;;;;;;;17.27;9.40;;;;;;;3.34;32.34;99764.22;12649610;23;20069;-81
2022/03/19 23:55:06;;;;;;;18.67;10.40;;;;;;;3.34;32.50;99757.94;12610264;23;20015;-80
